FBMN

Maun Airport

Maun, Botswana
METAR FBMN 190500Z 06003KT CAVOK 19/02 Q1016
Observed Flight Rules
Sep-19 @ 05:00 UTC (40 minutes ago) Visual Flight Rules
Wind Visibility Clouds
60° at 3 knots 10,000+ meters
  • Clear skies
Temperatures Readings
Current 19°C / 66°F
Dewpoint 2°C / 36°F
Humidity 32%
Altimeter 30" Hg
Pressure 1016 hPa
Elevation 900
METAR FBMN 190500Z 06003KT CAVOK 19/02 Q1016
Observed Flight Rules
Sep-19 @ 05:00 UTC
(40 minutes ago)
VFR
Wind Visibility
60° at 3 knots 10,000+ meters
Clouds
  • Clear skies
Temperature Dewpoint
19°C / 66°F 2°C / 36°F
Humidity Altimeter Pressure
32% 30" Hg 1016 hPa